createdAt,value
2022-10-17T00:01:11.594Z,86.06
2022-10-17T00:03:36.239Z,86.19
2022-10-17T00:05:59.269Z,86.71
2022-10-17T00:08:21.952Z,86.59
2022-10-17T00:10:45.192Z,86.85
2022-10-17T00:13:08.829Z,87.19
2022-10-17T00:15:31.682Z,86.95
2022-10-17T00:17:54.265Z,86.56
2022-10-17T00:20:17.265Z,86.23
2022-10-17T00:22:40.138Z,85.92
2022-10-17T00:25:02.710Z,85.57
2022-10-17T00:27:25.772Z,86.29
2022-10-17T00:29:50.242Z,86.90
2022-10-17T00:32:12.828Z,86.53
2022-10-17T00:34:35.237Z,86.53
2022-10-17T00:36:58.101Z,86.51
2022-10-17T00:39:20.978Z,86.45
2022-10-17T00:41:43.687Z,86.84
2022-10-17T00:44:31.370Z,86.95
2022-10-17T00:46:54.064Z,87.40
2022-10-17T00:49:16.786Z,87.58
2022-10-17T00:51:46.776Z,87.50
2022-10-17T00:54:13.842Z,87.18
2022-10-17T00:56:37.000Z,86.65
2022-10-17T00:59:00.701Z,86.03
2022-10-17T01:01:23.344Z,86.09
2022-10-17T01:03:46.108Z,86.29
2022-10-17T01:06:11.698Z,85.98
2022-10-17T01:08:34.629Z,85.95
2022-10-17T01:11:03.319Z,85.99
2022-10-17T01:13:38.174Z,86.15
2022-10-17T01:16:17.237Z,86.13
2022-10-17T01:18:50.231Z,86.04
2022-10-17T01:21:39.194Z,86.15
2022-10-17T01:24:04.854Z,85.76
2022-10-17T01:26:55.475Z,85.32
2022-10-17T01:29:56.130Z,85.61
2022-10-17T01:32:37.112Z,86.16
2022-10-17T01:35:13.284Z,85.96
2022-10-17T01:37:56.113Z,85.75
2022-10-17T01:40:49.128Z,85.87
2022-10-17T01:43:23.756Z,86.69
2022-10-17T01:45:53.840Z,86.96
2022-10-17T01:48:21.779Z,86.99
2022-10-17T01:50:56.929Z,87.62
2022-10-17T01:53:33.678Z,87.60
2022-10-17T01:56:00.426Z,87.72
2022-10-17T01:58:34.088Z,87.72
2022-10-17T02:01:01.588Z,87.77
2022-10-17T02:03:28.652Z,88.00
2022-10-17T02:05:51.730Z,87.96
2022-10-17T02:08:25.066Z,87.55
2022-10-17T02:10:54.875Z,87.44
2022-10-17T02:13:35.575Z,87.46
2022-10-17T02:16:10.852Z,87.41
2022-10-17T02:19:15.716Z,87.64
2022-10-17T02:22:08.806Z,87.01
2022-10-17T02:24:57.765Z,87.09
2022-10-17T02:27:55.916Z,87.29
2022-10-17T02:30:55.103Z,87.37
2022-10-17T02:33:40.785Z,87.45
2022-10-17T02:36:08.997Z,87.29
2022-10-17T02:38:33.135Z,87.42
2022-10-17T02:40:57.270Z,87.67
2022-10-17T02:43:21.958Z,87.29
2022-10-17T02:45:46.169Z,87.37
2022-10-17T02:48:15.432Z,87.18
2022-10-17T02:51:01.271Z,87.38
2022-10-17T02:53:31.593Z,87.58
2022-10-17T02:56:00.433Z,87.42
2022-10-17T02:58:29.059Z,87.52
2022-10-17T03:00:52.761Z,87.32
2022-10-17T03:03:30.375Z,87.19
2022-10-17T03:05:57.067Z,87.28
2022-10-17T03:08:22.374Z,87.79
2022-10-17T03:10:45.138Z,87.92
2022-10-17T03:13:07.701Z,88.04
2022-10-17T03:15:34.215Z,87.97
2022-10-17T03:17:57.007Z,87.68
2022-10-17T03:20:19.672Z,87.67
2022-10-17T03:22:42.181Z,87.61
2022-10-17T03:25:06.487Z,87.35
2022-10-17T03:27:31.640Z,87.36
2022-10-17T03:29:54.596Z,87.33
2022-10-17T03:32:17.348Z,87.18
2022-10-17T03:34:39.958Z,87.26
2022-10-17T03:37:02.748Z,87.24
2022-10-17T03:39:27.037Z,87.25
2022-10-17T03:41:49.878Z,87.25
2022-10-17T03:44:12.520Z,87.17
2022-10-17T03:46:35.336Z,87.15
2022-10-17T03:48:57.940Z,86.83
2022-10-17T03:51:20.768Z,87.17
2022-10-17T03:53:48.020Z,87.06
2022-10-17T03:56:15.329Z,87.33
2022-10-17T03:58:38.871Z,87.46
2022-10-17T04:01:09.783Z,87.52
2022-10-17T04:03:33.316Z,87.34
2022-10-17T04:05:59.964Z,87.30
2022-10-17T04:08:23.153Z,87.35
2022-10-17T04:11:08.426Z,87.35
2022-10-17T04:13:31.534Z,87.33
2022-10-17T04:15:59.041Z,87.21
2022-10-17T04:18:22.142Z,87.38
2022-10-17T04:20:44.711Z,86.95
2022-10-17T04:23:07.588Z,87.08
2022-10-17T04:25:33.413Z,87.18
2022-10-17T04:27:58.685Z,87.29
2022-10-17T04:30:21.512Z,87.34
2022-10-17T04:32:44.200Z,87.26
2022-10-17T04:35:15.533Z,87.39
2022-10-17T04:37:43.306Z,87.15
2022-10-17T04:40:12.527Z,87.05
2022-10-17T04:42:35.295Z,87.22
2022-10-17T04:44:58.111Z,87.10
2022-10-17T04:47:22.100Z,87.08
2022-10-17T04:49:44.846Z,87.17
2022-10-17T04:52:11.055Z,87.04
2022-10-17T04:54:36.628Z,87.03
2022-10-17T04:57:03.718Z,87.12
2022-10-17T04:59:26.357Z,87.05
2022-10-17T05:02:00.089Z,87.09
2022-10-17T05:04:24.847Z,86.96
2022-10-17T05:06:48.969Z,86.90
2022-10-17T05:09:28.026Z,86.97
2022-10-17T05:11:50.698Z,86.94
2022-10-17T05:14:15.146Z,86.78
2022-10-17T05:16:38.274Z,86.73
2022-10-17T05:19:01.845Z,86.04
2022-10-17T05:24:00.301Z,85.91
2022-10-17T05:26:23.942Z,85.56
2022-10-17T05:28:46.786Z,85.36
2022-10-17T05:31:11.485Z,84.86
2022-10-17T05:33:35.153Z,84.57
2022-10-17T05:35:58.568Z,84.37
2022-10-17T05:38:21.260Z,84.05
2022-10-17T05:40:45.551Z,83.42
2022-10-17T05:43:08.752Z,83.12
2022-10-17T05:45:31.645Z,82.98
2022-10-17T05:47:55.525Z,82.37
2022-10-17T05:50:21.606Z,82.28
2022-10-17T05:53:02.916Z,81.72
2022-10-17T05:55:25.955Z,81.40
2022-10-17T05:57:52.714Z,80.42
2022-10-17T06:00:16.212Z,80.84
2022-10-17T06:02:40.341Z,80.36
2022-10-17T06:05:02.935Z,80.02
2022-10-17T06:07:25.529Z,79.57
2022-10-17T06:09:49.023Z,79.19
2022-10-17T06:12:11.599Z,79.18
2022-10-17T06:14:34.612Z,78.92
2022-10-17T06:16:59.395Z,78.48
2022-10-17T06:19:24.541Z,78.01
2022-10-17T06:21:47.248Z,77.57
2022-10-17T06:24:14.406Z,77.70
2022-10-17T06:26:38.626Z,78.10
2022-10-17T06:29:03.765Z,77.76
2022-10-17T06:31:31.127Z,77.39
2022-10-17T06:33:53.832Z,76.51
2022-10-17T06:36:16.527Z,76.56
2022-10-17T06:38:41.635Z,75.94
2022-10-17T06:41:15.076Z,75.48
2022-10-17T06:43:38.300Z,75.91
2022-10-17T06:46:36.575Z,75.59
2022-10-17T06:49:01.263Z,74.04
2022-10-17T06:51:39.131Z,72.83
2022-10-17T06:54:04.959Z,72.90
2022-10-17T06:57:06.027Z,73.25
2022-10-17T06:59:47.489Z,72.70
2022-10-17T07:02:23.712Z,73.25
2022-10-17T07:04:48.476Z,74.05
2022-10-17T07:07:11.119Z,73.04
2022-10-17T07:09:34.247Z,74.03
2022-10-17T07:11:57.560Z,73.49
2022-10-17T07:14:20.213Z,73.00
2022-10-17T07:16:43.321Z,71.65
2022-10-17T07:19:15.120Z,69.07
2022-10-17T07:21:39.210Z,68.02
2022-10-17T07:24:04.223Z,66.78
2022-10-17T07:26:27.099Z,64.93
2022-10-17T07:28:54.600Z,63.31
2022-10-17T07:31:27.217Z,61.20
2022-10-17T07:33:51.385Z,60.99
2022-10-17T07:36:14.110Z,60.09
2022-10-17T07:38:37.428Z,59.56
2022-10-17T07:41:03.578Z,59.07
2022-10-17T07:43:27.120Z,60.18
2022-10-17T07:45:50.569Z,61.36
2022-10-17T07:48:13.415Z,63.42
2022-10-17T07:50:36.647Z,62.30
2022-10-17T07:52:59.514Z,63.81
2022-10-17T07:55:22.228Z,64.87
2022-10-17T07:57:45.082Z,65.67
2022-10-17T08:00:08.904Z,66.03
2022-10-17T08:02:40.217Z,66.60
2022-10-17T08:05:02.952Z,66.60
2022-10-17T08:07:29.282Z,65.64
2022-10-17T08:09:53.055Z,66.74
2022-10-17T08:12:16.098Z,65.78
2022-10-17T08:14:39.889Z,65.55
2022-10-17T08:17:02.554Z,65.23
2022-10-17T08:19:25.424Z,64.99
2022-10-17T08:21:49.755Z,64.78
2022-10-17T08:24:12.899Z,65.01
2022-10-17T08:26:39.257Z,65.53
2022-10-17T08:29:05.138Z,65.76
2022-10-17T08:31:27.811Z,63.83
2022-10-17T08:33:51.136Z,64.27
2022-10-17T08:36:15.356Z,63.73
2022-10-17T08:38:43.193Z,63.53
2022-10-17T08:41:26.391Z,63.67
2022-10-17T08:44:19.475Z,63.15
2022-10-17T08:46:45.044Z,63.21
2022-10-17T08:49:15.116Z,64.48
2022-10-17T08:51:44.384Z,62.32
2022-10-17T08:54:16.014Z,61.86
2022-10-17T08:56:54.163Z,61.93
2022-10-17T08:59:29.372Z,61.95
2022-10-17T09:02:29.461Z,61.12
2022-10-17T09:05:01.816Z,60.98
2022-10-17T09:07:24.825Z,59.93
2022-10-17T09:10:33.867Z,60.06
2022-10-17T09:13:18.588Z,60.47
2022-10-17T09:16:08.247Z,60.61
2022-10-17T09:18:36.171Z,61.42
2022-10-17T09:21:18.669Z,59.55
2022-10-17T09:24:09.610Z,59.42
2022-10-17T09:26:40.937Z,60.37
2022-10-17T09:29:10.630Z,58.70
2022-10-17T09:31:40.957Z,58.28
2022-10-17T09:34:28.216Z,58.16
2022-10-17T09:36:50.970Z,58.52
2022-10-17T09:39:26.235Z,56.55
2022-10-17T09:41:52.034Z,57.44
2022-10-17T09:44:18.731Z,57.17
2022-10-17T09:46:51.018Z,57.35
2022-10-17T09:49:19.958Z,57.64
2022-10-17T09:51:42.757Z,57.03
2022-10-17T09:54:17.801Z,55.61
2022-10-17T09:57:00.593Z,55.86
2022-10-17T09:59:42.168Z,56.24
2022-10-17T10:02:26.563Z,56.99
2022-10-17T10:05:09.557Z,55.82
2022-10-17T10:07:40.106Z,56.01
2022-10-17T10:10:04.718Z,55.86
2022-10-17T10:12:32.057Z,55.76
2022-10-17T10:14:55.992Z,55.99
2022-10-17T10:17:35.503Z,55.74
2022-10-17T10:19:59.667Z,55.68
2022-10-17T10:22:25.700Z,54.49
2022-10-17T10:25:07.799Z,54.87
2022-10-17T10:27:30.599Z,53.72
2022-10-17T10:29:53.697Z,53.98
2022-10-17T10:32:22.454Z,53.79
2022-10-17T10:34:59.211Z,53.75
2022-10-17T10:37:41.890Z,52.84
2022-10-17T10:40:16.277Z,55.45
2022-10-17T10:42:40.450Z,53.52
2022-10-17T10:45:29.202Z,53.24
2022-10-17T10:48:01.316Z,52.58
2022-10-17T10:50:29.831Z,52.59
2022-10-17T10:53:22.784Z,52.31
2022-10-17T10:55:52.107Z,52.83
2022-10-17T10:58:42.064Z,52.02
2022-10-17T11:01:14.686Z,51.03
2022-10-17T11:03:50.284Z,51.46
2022-10-17T11:06:30.521Z,52.25
2022-10-17T11:09:14.014Z,50.70
2022-10-17T11:11:42.593Z,51.39
2022-10-17T11:14:37.358Z,51.19
2022-10-17T11:17:09.207Z,51.52
2022-10-17T11:19:51.879Z,51.48
2022-10-17T11:22:26.709Z,51.03
2022-10-17T11:25:32.616Z,51.12
2022-10-17T11:27:55.607Z,51.60
2022-10-17T11:30:18.800Z,51.93
2022-10-17T11:32:49.138Z,52.11
2022-10-17T11:35:27.983Z,50.68
2022-10-17T11:37:58.238Z,51.04
2022-10-17T11:40:51.299Z,50.34
2022-10-17T11:43:16.935Z,50.23
2022-10-17T11:45:44.644Z,50.50
2022-10-17T11:48:37.679Z,50.24
2022-10-17T11:54:02.525Z,48.86
2022-10-17T11:57:06.351Z,48.58
2022-10-17T11:59:45.278Z,48.14
2022-10-17T12:02:31.039Z,48.29
2022-10-17T12:05:07.004Z,47.76
2022-10-17T12:08:12.028Z,48.74
2022-10-17T12:10:47.522Z,47.25
2022-10-17T12:13:28.378Z,46.98
2022-10-17T12:15:51.001Z,47.56
2022-10-17T12:18:17.502Z,47.83
2022-10-17T12:20:40.167Z,47.18
2022-10-17T12:23:19.480Z,47.42
2022-10-17T12:26:01.491Z,47.25
2022-10-17T12:28:48.132Z,47.36
2022-10-17T12:31:23.150Z,45.64
2022-10-17T12:33:53.264Z,46.08
2022-10-17T12:36:18.589Z,46.11
2022-10-17T12:38:41.251Z,46.36
2022-10-17T12:41:05.610Z,46.63
2022-10-17T12:43:28.465Z,44.83
2022-10-17T12:46:02.285Z,46.11
2022-10-17T12:48:33.858Z,46.26
2022-10-17T12:51:35.320Z,46.34
2022-10-17T12:54:15.155Z,45.73
2022-10-17T12:56:41.457Z,45.48
2022-10-17T12:59:22.674Z,46.12
2022-10-17T13:01:48.266Z,46.62
2022-10-17T13:04:11.456Z,47.04
2022-10-17T13:06:39.935Z,46.63
2022-10-17T13:09:06.104Z,46.79
2022-10-17T13:11:31.883Z,45.30
2022-10-17T13:13:57.351Z,46.47
2022-10-17T13:16:40.022Z,45.64
2022-10-17T13:19:14.884Z,45.67
2022-10-17T13:21:37.572Z,46.75
2022-10-17T13:24:01.219Z,46.21
2022-10-17T13:26:28.929Z,47.29
2022-10-17T13:29:05.078Z,46.83
2022-10-17T13:31:32.094Z,47.48
2022-10-17T13:34:00.999Z,47.82
2022-10-17T13:36:24.186Z,47.87
2022-10-17T13:38:47.307Z,47.11
2022-10-17T13:41:34.767Z,46.87
2022-10-17T13:44:00.983Z,46.76
2022-10-17T13:46:37.922Z,47.61
2022-10-17T13:49:15.803Z,48.11
2022-10-17T13:51:43.965Z,48.45
2022-10-17T13:54:29.823Z,47.95
2022-10-17T13:56:57.565Z,47.66
2022-10-17T13:59:25.014Z,47.08
2022-10-17T14:01:49.868Z,47.72
2022-10-17T14:04:19.919Z,48.65
2022-10-17T14:06:47.662Z,47.47
2022-10-17T14:09:32.376Z,47.56
2022-10-17T14:12:02.701Z,48.07
2022-10-17T14:14:26.357Z,48.64
2022-10-17T14:16:49.297Z,47.73
2022-10-17T14:19:32.050Z,48.31
2022-10-17T14:21:57.080Z,48.30
2022-10-17T14:24:22.343Z,48.36
2022-10-17T14:27:03.316Z,48.45
2022-10-17T14:29:28.783Z,49.53
2022-10-17T14:31:58.511Z,49.55
2022-10-17T14:34:26.677Z,47.12
2022-10-17T14:36:52.059Z,48.78
2022-10-17T14:39:24.462Z,49.40
2022-10-17T14:41:48.157Z,49.04
2022-10-17T14:44:24.357Z,49.64
2022-10-17T14:46:51.081Z,49.48
2022-10-17T14:49:35.502Z,50.10
2022-10-17T14:52:23.624Z,50.52
2022-10-17T14:54:49.251Z,50.33
2022-10-17T14:57:28.472Z,50.30
2022-10-17T14:59:55.176Z,50.92
2022-10-17T15:02:18.179Z,50.83
2022-10-17T15:04:41.062Z,51.49
2022-10-17T15:07:03.656Z,52.27
2022-10-17T15:09:28.911Z,52.47
2022-10-17T15:11:51.420Z,52.51
2022-10-17T15:14:13.911Z,52.71
2022-10-17T15:16:37.152Z,53.47
2022-10-17T15:19:00.808Z,54.21
2022-10-17T15:21:37.333Z,54.11
2022-10-17T15:24:02.061Z,54.24
2022-10-17T15:26:26.856Z,53.41
2022-10-17T15:28:50.342Z,53.66
2022-10-17T15:31:15.184Z,53.40
2022-10-17T15:33:37.732Z,53.74
2022-10-17T15:36:00.290Z,54.15
2022-10-17T15:38:22.892Z,54.66
2022-10-17T15:40:48.891Z,54.83
2022-10-17T15:43:11.493Z,55.22
2022-10-17T15:45:34.049Z,55.82
2022-10-17T15:48:02.840Z,56.47
2022-10-17T15:50:25.399Z,56.27
2022-10-17T15:52:51.143Z,56.73
2022-10-17T15:55:13.787Z,57.29
2022-10-17T15:57:40.269Z,57.51
2022-10-17T16:00:04.671Z,57.83
2022-10-17T16:02:33.436Z,57.86
2022-10-17T16:04:55.906Z,58.05
2022-10-17T16:07:19.573Z,58.65
2022-10-17T16:09:43.335Z,58.90
2022-10-17T16:12:11.676Z,59.51
2022-10-17T16:14:34.275Z,59.89
2022-10-17T16:16:56.928Z,60.48
2022-10-17T16:19:23.709Z,60.32
2022-10-17T16:21:46.672Z,60.64
2022-10-17T16:24:13.040Z,60.99
2022-10-17T16:26:35.963Z,61.11
2022-10-17T16:29:02.864Z,61.40
2022-10-17T16:31:31.177Z,61.24
2022-10-17T16:33:55.222Z,61.43
2022-10-17T16:36:17.965Z,62.14
2022-10-17T16:38:40.578Z,62.23
2022-10-17T16:41:03.350Z,62.67
2022-10-17T16:43:25.902Z,62.74
2022-10-17T16:45:48.393Z,62.76
2022-10-17T16:48:12.283Z,62.78
2022-10-17T16:50:39.320Z,62.59
2022-10-17T16:53:03.927Z,62.47
2022-10-17T16:55:26.614Z,62.37
2022-10-17T16:57:49.475Z,62.51
2022-10-17T17:00:12.811Z,62.85
2022-10-17T17:02:35.310Z,63.08
2022-10-17T17:04:57.986Z,63.21
2022-10-17T17:07:21.847Z,63.41
2022-10-17T17:09:44.607Z,63.60
2022-10-17T17:12:07.199Z,63.90
2022-10-17T17:14:29.708Z,63.93
2022-10-17T17:16:52.178Z,64.16
2022-10-17T17:19:17.143Z,64.27
2022-10-17T17:21:40.324Z,64.52
2022-10-17T17:24:04.687Z,64.30
2022-10-17T17:26:30.091Z,64.83
2022-10-17T17:28:54.320Z,65.16
2022-10-17T17:31:22.830Z,65.19
2022-10-17T17:33:46.850Z,65.18
2022-10-17T17:36:13.798Z,65.49
2022-10-17T17:38:36.945Z,65.58
2022-10-17T17:40:59.669Z,66.33
2022-10-17T17:43:24.526Z,66.42
2022-10-17T17:45:47.417Z,66.45
2022-10-17T17:48:10.204Z,66.52
2022-10-17T17:50:35.761Z,67.61
2022-10-17T17:52:58.692Z,67.54
2022-10-17T17:55:21.249Z,68.51
2022-10-17T17:57:43.752Z,68.65
2022-10-17T18:00:07.252Z,69.68
2022-10-17T18:02:31.002Z,69.16
2022-10-17T18:04:53.766Z,69.40
2022-10-17T18:07:16.411Z,69.49
2022-10-17T18:09:39.731Z,69.94
2022-10-17T18:12:02.381Z,70.24
2022-10-17T18:14:25.639Z,69.98
2022-10-17T18:16:48.245Z,70.32
2022-10-17T18:19:11.615Z,71.08
2022-10-17T18:21:36.221Z,71.40
2022-10-17T18:24:00.385Z,72.42
2022-10-17T18:26:23.378Z,72.07
2022-10-17T18:28:47.034Z,71.88
2022-10-17T18:31:24.335Z,71.28
2022-10-17T18:33:47.071Z,71.03
2022-10-17T18:36:13.506Z,71.45
2022-10-17T18:38:37.000Z,69.92
2022-10-17T18:41:11.091Z,71.16
2022-10-17T18:43:35.692Z,71.06
2022-10-17T18:46:04.034Z,70.04
2022-10-17T18:48:26.535Z,70.31
2022-10-17T18:50:49.021Z,70.70
2022-10-17T18:53:11.590Z,71.26
2022-10-17T18:55:34.383Z,70.91
2022-10-17T18:58:00.908Z,72.04
2022-10-17T19:00:23.402Z,71.25
2022-10-17T19:02:46.563Z,71.67
2022-10-17T19:05:09.708Z,71.52
2022-10-17T19:07:32.613Z,71.15
2022-10-17T19:09:57.681Z,70.57
2022-10-17T19:12:20.587Z,71.51
2022-10-17T19:14:43.319Z,70.42
2022-10-17T19:17:05.908Z,70.47
2022-10-17T19:19:28.633Z,70.74
2022-10-17T19:21:51.791Z,71.07
2022-10-17T19:24:21.157Z,71.53
2022-10-17T19:26:45.592Z,72.33
2022-10-17T19:29:08.515Z,72.76
2022-10-17T19:31:33.346Z,73.17
2022-10-17T19:33:56.486Z,73.64
2022-10-17T19:36:21.016Z,74.21
2022-10-17T19:38:43.555Z,74.45
2022-10-17T19:41:11.412Z,74.09
2022-10-17T19:43:37.609Z,73.81
2022-10-17T19:46:02.103Z,74.32
2022-10-17T19:48:25.982Z,74.74
2022-10-17T19:50:49.987Z,74.03
2022-10-17T19:53:12.457Z,74.74
2022-10-17T19:55:34.939Z,75.25
2022-10-17T19:57:59.221Z,74.67
2022-10-17T20:00:21.837Z,75.63
2022-10-17T20:02:44.301Z,75.45
2022-10-17T20:05:20.950Z,75.32
2022-10-17T20:07:46.299Z,75.08
2022-10-17T20:10:09.679Z,75.75
2022-10-17T20:12:32.844Z,75.72
2022-10-17T20:14:55.645Z,75.97
2022-10-17T20:17:18.164Z,76.62
2022-10-17T20:19:40.996Z,77.20
2022-10-17T20:22:03.592Z,77.66
2022-10-17T20:24:26.077Z,77.92
2022-10-17T20:26:48.842Z,77.66
2022-10-17T20:29:20.520Z,77.58
2022-10-17T20:31:44.667Z,77.53
2022-10-17T20:34:07.221Z,77.21
2022-10-17T20:36:29.815Z,76.69
2022-10-17T20:38:56.815Z,76.49
2022-10-17T20:41:19.356Z,75.71
2022-10-17T20:43:42.131Z,75.37
2022-10-17T20:46:22.705Z,76.56
2022-10-17T20:48:52.324Z,76.51
2022-10-17T20:51:16.535Z,76.40
2022-10-17T20:53:39.044Z,76.45
2022-10-17T20:56:07.934Z,76.83
2022-10-17T20:58:30.680Z,77.71
2022-10-17T21:00:53.290Z,79.76
2022-10-17T21:03:15.992Z,80.20
2022-10-17T21:05:41.666Z,80.42
2022-10-17T21:08:04.487Z,80.66
2022-10-17T21:10:35.583Z,80.82
2022-10-17T21:12:59.759Z,81.04
2022-10-17T21:15:22.605Z,81.29
2022-10-17T21:17:45.136Z,81.64
2022-10-17T21:20:08.199Z,82.19
2022-10-17T21:22:32.975Z,82.64
2022-10-17T21:24:55.756Z,82.50
2022-10-17T21:27:19.700Z,81.76
2022-10-17T21:29:42.600Z,81.38
2022-10-17T21:32:14.542Z,82.00
2022-10-17T21:34:47.997Z,81.76
2022-10-17T21:37:10.952Z,81.30
2022-10-17T21:39:33.584Z,80.88
2022-10-17T21:41:56.062Z,80.81
2022-10-17T21:44:21.126Z,80.81
2022-10-17T21:46:44.350Z,80.57
2022-10-17T21:49:07.028Z,81.14
2022-10-17T21:51:29.665Z,81.07
2022-10-17T21:53:53.661Z,81.33
2022-10-17T21:56:19.352Z,81.15
2022-10-17T21:58:42.737Z,81.19
2022-10-17T22:01:06.254Z,81.71
2022-10-17T22:03:28.687Z,81.95
2022-10-17T22:06:06.869Z,82.27
2022-10-17T22:08:37.408Z,82.63
2022-10-17T22:11:05.999Z,83.42
2022-10-17T22:13:28.899Z,84.19
2022-10-17T22:15:51.423Z,84.19
2022-10-17T22:18:14.445Z,84.48
2022-10-17T22:20:36.967Z,84.28
2022-10-17T22:22:59.490Z,84.90
2022-10-17T22:25:22.055Z,85.10
2022-10-17T22:27:44.861Z,84.77
2022-10-17T22:30:08.087Z,84.60
2022-10-17T22:32:30.781Z,84.43
2022-10-17T22:34:53.360Z,84.69
2022-10-17T22:37:15.856Z,84.20
2022-10-17T22:39:42.551Z,84.10
2022-10-17T22:42:05.033Z,84.30
2022-10-17T22:44:27.498Z,84.03
2022-10-17T22:46:50.109Z,84.07
2022-10-17T22:49:12.695Z,83.96
2022-10-17T22:51:35.177Z,84.15
2022-10-17T22:53:57.683Z,84.02
2022-10-17T22:56:21.723Z,84.20
2022-10-17T22:58:44.393Z,84.36
2022-10-17T23:01:08.631Z,84.63
2022-10-17T23:03:32.095Z,84.67
2022-10-17T23:05:54.891Z,84.84
2022-10-17T23:08:20.734Z,85.11
2022-10-17T23:10:43.733Z,85.07
2022-10-17T23:13:06.343Z,84.90
2022-10-17T23:15:28.972Z,85.34
2022-10-17T23:17:51.440Z,85.23
2022-10-17T23:20:14.155Z,85.50
2022-10-17T23:22:36.675Z,85.34
2022-10-17T23:24:59.291Z,85.48
2022-10-17T23:27:21.854Z,85.37
2022-10-17T23:29:46.325Z,85.11
2022-10-17T23:32:09.168Z,85.06
2022-10-17T23:34:31.715Z,84.83
2022-10-17T23:36:54.272Z,84.60
2022-10-17T23:39:17.061Z,85.11
2022-10-17T23:41:39.734Z,84.88
2022-10-17T23:44:02.376Z,84.34
2022-10-17T23:46:25.014Z,84.04
2022-10-17T23:48:47.609Z,83.86
2022-10-17T23:51:10.868Z,83.73
2022-10-17T23:53:33.420Z,83.95
2022-10-17T23:55:55.923Z,84.10
2022-10-17T23:58:18.780Z,84.07
